Time;durP1;ratioP1;P1;durP2;ratioP2;P2;SDS_P1;SDS_P2;PMS_P1;PMS_P2;Temp;Humidity;BMP_temperature;BMP_pressure;BME280_temperature;BME280_humidity;BME280_pressure;Samples;Min_cycle;Max_cycle;Signal;HPM_P1;HPM_P2
2022/10/08 00:00:16;;;;;;;6.85;1.20;;;;;;;-146.61;100.00;58846.50;5002857;28;20058;-77
2022/10/08 00:02:43;;;;;;;3.15;1.40;;;;;;;-146.61;100.00;58846.50;5009577;28;20157;-76
2022/10/08 00:05:09;;;;;;;5.07;1.20;;;;;;;-146.61;100.00;58846.50;5007671;28;20045;-76
2022/10/08 00:07:36;;;;;;;5.68;1.88;;;;;;;-146.61;100.00;58846.50;5006231;28;20038;-76
2022/10/08 00:10:05;;;;;;;2.08;1.10;;;;;;;-146.61;100.00;58846.50;4999171;28;20113;-76
2022/10/08 00:12:31;;;;;;;5.47;1.35;;;;;;;-146.61;100.00;58846.50;5003664;28;20113;-77
2022/10/08 00:14:57;;;;;;;3.67;1.35;;;;;;;-146.61;100.00;58846.50;5008173;28;20045;-78
2022/10/08 00:17:24;;;;;;;6.30;1.50;;;;;;;-146.61;100.00;58846.50;5009792;28;20038;-75
2022/10/08 00:19:51;;;;;;;6.47;1.80;;;;;;;-146.61;100.00;58846.50;5012803;28;20125;-77
2022/10/08 00:22:18;;;;;;;5.95;1.50;;;;;;;-146.61;100.00;58846.50;5018133;28;20373;-76
2022/10/08 00:24:45;;;;;;;3.80;1.20;;;;;;;-146.61;100.00;58846.50;5004840;28;20089;-77
2022/10/08 00:27:12;;;;;;;5.97;1.85;;;;;;;-146.61;100.00;58846.50;5022015;28;20042;-77
2022/10/08 00:29:38;;;;;;;7.28;1.58;;;;;;;-146.61;100.00;58846.50;5005957;28;20034;-80
2022/10/08 00:32:05;;;;;;;4.47;1.98;;;;;;;-146.61;100.00;58846.50;5006639;28;20038;-78
2022/10/08 00:34:32;;;;;;;5.60;1.70;;;;;;;-146.61;100.00;58846.50;5005902;28;20440;-78
2022/10/08 00:36:58;;;;;;;5.50;1.75;;;;;;;-146.61;100.00;58846.50;5008637;28;20046;-76
2022/10/08 00:39:25;;;;;;;4.60;1.55;;;;;;;-146.61;100.00;58846.50;5009045;28;20045;-76
2022/10/08 00:41:54;;;;;;;5.13;1.20;;;;;;;-146.61;100.00;58846.50;5008875;28;20052;-77
2022/10/08 00:44:53;;;;;;;3.30;1.42;;;;;;;-146.61;100.00;58846.50;5004023;28;20046;-75
2022/10/08 00:47:19;;;;;;;3.17;1.48;;;;;;;-146.61;100.00;58846.50;5010222;28;20046;-78
2022/10/08 00:49:52;;;;;;;3.22;1.25;;;;;;;-146.61;100.00;58846.50;5007423;28;20121;-76
2022/10/08 00:52:19;;;;;;;6.60;1.63;;;;;;;-146.61;100.00;58846.50;5003406;28;20169;-80
2022/10/08 00:54:48;;;;;;;4.55;1.77;;;;;;;-146.61;100.00;58846.50;5004071;28;20042;-77
2022/10/08 00:57:16;;;;;;;3.40;1.48;;;;;;;-146.61;100.00;58846.50;5001514;28;20612;-77
2022/10/08 00:59:42;;;;;;;7.05;1.55;;;;;;;-146.61;100.00;58846.50;5004265;28;20121;-77
2022/10/08 01:02:09;;;;;;;6.63;1.25;;;;;;;-146.61;100.00;58846.50;5004090;28;20133;-75
2022/10/08 01:04:38;;;;;;;4.35;1.50;;;;;;;-146.61;100.00;58846.50;5004879;28;20053;-76
2022/10/08 01:07:44;;;;;;;6.97;1.77;;;;;;;-146.61;100.00;58846.50;5005286;28;20048;-76
2022/10/08 01:10:38;;;;;;;4.47;1.55;;;;;;;-146.61;100.00;58846.50;5000440;28;20752;-77
2022/10/08 01:13:17;;;;;;;8.35;1.25;;;;;;;-146.61;100.00;58846.50;5006213;28;20041;-78
2022/10/08 01:15:49;;;;;;;3.10;1.38;;;;;;;-146.61;100.00;58846.50;5004786;28;20069;-75
2022/10/08 01:18:29;;;;;;;4.22;1.10;;;;;;;-146.61;100.00;58846.50;5001707;28;20132;-76
2022/10/08 01:21:14;;;;;;;2.80;1.58;;;;;;;-146.61;100.00;58846.50;4998256;28;20116;-74
2022/10/08 01:23:52;;;;;;;8.68;1.85;;;;;;;-146.61;100.00;58846.50;5018425;28;20132;-76
2022/10/08 01:26:35;;;;;;;5.78;1.85;;;;;;;-146.61;100.00;58846.50;5006233;28;20430;-78
2022/10/08 01:29:15;;;;;;;5.00;1.45;;;;;;;-146.61;100.00;58846.50;5000640;28;20046;-79
2022/10/08 01:31:48;;;;;;;9.02;2.63;;;;;;;-146.61;100.00;58846.50;4998910;28;20042;-78
2022/10/08 01:34:36;;;;;;;2.97;1.35;;;;;;;-146.61;100.00;58846.50;5003272;28;20038;-77
2022/10/08 01:37:05;;;;;;;7.60;1.45;;;;;;;-146.61;100.00;58846.50;5005778;28;20491;-76
2022/10/08 01:39:36;;;;;;;3.90;2.10;;;;;;;-146.61;100.00;58846.50;5002537;28;20507;-77
2022/10/08 01:42:04;;;;;;;2.33;1.33;;;;;;;-146.61;100.00;58846.50;5001446;28;20065;-76
2022/10/08 01:44:45;;;;;;;2.08;1.42;;;;;;;-146.61;100.00;58846.50;5004097;28;20515;-79
2022/10/08 01:47:16;;;;;;;4.80;1.77;;;;;;;-146.61;100.00;58846.50;5002799;28;20029;-78
2022/10/08 01:50:05;;;;;;;6.68;1.20;;;;;;;-146.61;100.00;58846.50;5002971;28;20048;-77
2022/10/08 01:52:46;;;;;;;5.60;1.40;;;;;;;-146.61;100.00;58846.50;4999456;28;20038;-76
2022/10/08 01:55:24;;;;;;;4.43;1.50;;;;;;;-146.61;100.00;58846.50;5004414;28;20053;-76
2022/10/08 01:57:52;;;;;;;4.60;1.38;;;;;;;-146.61;100.00;58846.50;5005023;28;20673;-77
2022/10/08 02:00:19;;;;;;;9.05;1.70;;;;;;;-146.61;100.00;58846.50;4997267;28;20049;-76
2022/10/08 02:02:45;;;;;;;7.40;2.10;;;;;;;-146.61;100.00;58846.50;5001609;28;20049;-77
2022/10/08 02:05:12;;;;;;;7.45;1.95;;;;;;;-146.61;100.00;58846.50;5002705;28;20045;-78
2022/10/08 02:07:41;;;;;;;4.85;1.90;;;;;;;-146.61;100.00;58846.50;5002193;28;20038;-80
2022/10/08 02:10:17;;;;;;;8.80;1.83;;;;;;;-146.61;100.00;58846.50;4999835;28;20062;-79
2022/10/08 02:12:44;;;;;;;7.60;2.00;;;;;;;-146.61;100.00;58846.50;5003288;28;20049;-76
2022/10/08 02:15:36;;;;;;;5.35;2.10;;;;;;;-146.61;100.00;58846.50;5006510;28;20130;-78
2022/10/08 02:18:14;;;;;;;5.50;1.35;;;;;;;-146.61;100.00;58846.50;5006610;28;20057;-77
2022/10/08 02:20:52;;;;;;;9.45;1.50;;;;;;;-146.61;100.00;58846.50;5001672;28;20148;-76
2022/10/08 02:23:36;;;;;;;5.97;1.27;;;;;;;-146.61;100.00;58846.50;5006434;28;20071;-77
2022/10/08 02:26:09;;;;;;;;;;;;;;;-146.61;100.00;58846.50;5005514;28;20133;-79
2022/10/08 02:29:02;;;;;;;6.13;1.50;;;;;;;-146.61;100.00;58846.50;5003144;28;20028;-78
2022/10/08 02:31:55;;;;;;;10.43;1.63;;;;;;;-146.61;100.00;58846.50;5017616;28;20087;-77
2022/10/08 02:34:31;;;;;;;7.38;2.10;;;;;;;-146.61;100.00;58846.50;5006607;28;20050;-75
2022/10/08 02:37:12;;;;;;;3.50;1.23;;;;;;;-146.61;100.00;58846.50;5006322;28;20659;-77
2022/10/08 02:39:46;;;;;;;6.05;1.60;;;;;;;-146.61;100.00;58846.50;5002943;28;20038;-77
2022/10/08 02:42:17;;;;;;;12.07;2.78;;;;;;;-146.61;100.00;58846.50;5003972;28;20053;-77
2022/10/08 02:44:54;;;;;;;8.35;1.58;;;;;;;-146.61;100.00;58846.50;5007822;28;20045;-76
2022/10/08 02:47:25;;;;;;;11.70;1.77;;;;;;;-146.61;100.00;58846.50;5004085;28;20472;-77
2022/10/08 02:50:01;;;;;;;7.93;1.63;;;;;;;-146.61;100.00;58846.50;4999812;28;20042;-76
2022/10/08 02:52:35;;;;;;;9.00;1.80;;;;;;;-146.61;100.00;58846.50;5003449;28;20042;-79
2022/10/08 02:55:07;;;;;;;8.48;1.58;;;;;;;-146.61;100.00;58846.50;5002399;28;20034;-77
2022/10/08 02:57:42;;;;;;;13.52;1.85;;;;;;;-146.61;100.00;58846.50;5006451;28;20042;-76
2022/10/08 03:00:10;;;;;;;10.38;1.67;;;;;;;-146.61;100.00;58846.50;5001089;28;20559;-75
2022/10/08 03:02:45;;;;;;;11.95;1.95;;;;;;;-146.61;100.00;58846.50;5000499;28;20038;-78
2022/10/08 03:05:17;;;;;;;6.82;1.88;;;;;;;-146.61;100.00;58846.50;5003927;28;20351;-76
2022/10/08 03:07:46;;;;;;;5.05;1.75;;;;;;;-146.61;100.00;58846.50;5006489;28;20698;-75
2022/10/08 03:10:12;;;;;;;9.20;2.80;;;;;;;-146.61;100.00;58846.50;5005369;28;20082;-77
2022/10/08 03:12:39;;;;;;;11.73;2.28;;;;;;;-146.61;100.00;58846.50;5008109;28;20048;-78
2022/10/08 03:15:10;;;;;;;10.48;2.45;;;;;;;-146.61;100.00;58846.50;5006301;28;20050;-75
2022/10/08 03:17:41;;;;;;;7.32;1.70;;;;;;;-146.61;100.00;58846.50;5003800;28;20052;-76
2022/10/08 03:20:09;;;;;;;3.60;2.08;;;;;;;-146.61;100.00;58846.50;5002099;28;20454;-76
2022/10/08 03:22:37;;;;;;;8.25;2.28;;;;;;;-146.61;100.00;58846.50;5003336;28;20058;-76
2022/10/08 03:25:04;;;;;;;13.43;3.53;;;;;;;-146.61;100.00;58846.50;5004664;28;20042;-77
2022/10/08 03:27:30;;;;;;;8.18;2.05;;;;;;;-146.61;100.00;58846.50;5003617;28;20049;-76
2022/10/08 03:29:58;;;;;;;6.95;1.80;;;;;;;-146.61;100.00;58846.50;5001252;28;20595;-78
2022/10/08 03:32:25;;;;;;;8.52;2.85;;;;;;;-146.61;100.00;58846.50;5001096;28;20046;-74
2022/10/08 03:34:52;;;;;;;6.75;1.90;;;;;;;-146.61;100.00;58846.50;5004109;28;20141;-75
2022/10/08 03:37:18;;;;;;;4.25;1.75;;;;;;;-146.61;100.00;58846.50;5003324;28;20493;-77
2022/10/08 03:39:45;;;;;;;12.43;2.08;;;;;;;-146.61;100.00;58846.50;4999447;28;20080;-78
2022/10/08 03:42:12;;;;;;;9.95;2.05;;;;;;;-146.61;100.00;58846.50;4999996;28;20796;-77
2022/10/08 03:44:39;;;;;;;3.03;1.65;;;;;;;-146.61;100.00;58846.50;5015140;28;20121;-77
2022/10/08 03:47:05;;;;;;;8.80;2.00;;;;;;;-146.61;100.00;58846.50;4998239;28;20044;-80
2022/10/08 03:49:32;;;;;;;6.90;1.60;;;;;;;-146.61;100.00;58846.50;5003063;28;20038;-77
2022/10/08 03:51:58;;;;;;;2.83;1.30;;;;;;;-146.61;100.00;58846.50;4999622;28;20045;-77
2022/10/08 03:54:24;;;;;;;8.65;3.58;;;;;;;-146.61;100.00;58846.50;5005121;28;20127;-78
2022/10/08 03:56:51;;;;;;;5.80;1.95;;;;;;;-146.61;100.00;58846.50;5003054;28;20680;-77
2022/10/08 03:59:17;;;;;;;7.93;1.60;;;;;;;-146.61;100.00;58846.50;5000577;28;20078;-77
2022/10/08 04:01:44;;;;;;;8.10;1.90;;;;;;;-146.61;100.00;58846.50;5000794;28;20124;-75
2022/10/08 04:04:10;;;;;;;4.28;1.70;;;;;;;-146.61;100.00;58846.50;5003218;28;20132;-76
2022/10/08 04:06:36;;;;;;;3.65;1.55;;;;;;;-146.61;100.00;58846.50;5006695;28;20042;-77
2022/10/08 04:09:03;;;;;;;7.68;1.42;;;;;;;-146.61;100.00;58846.50;5002400;28;20513;-77
2022/10/08 04:11:29;;;;;;;7.25;2.33;;;;;;;-146.61;100.00;58846.50;4997299;28;20686;-75
2022/10/08 04:13:56;;;;;;;8.07;1.48;;;;;;;-146.61;100.00;58846.50;5003124;28;20067;-77
2022/10/08 04:16:22;;;;;;;3.55;1.63;;;;;;;-146.61;100.00;58846.50;5003945;28;20058;-77
2022/10/08 04:18:49;;;;;;;10.45;1.95;;;;;;;-146.61;100.00;58846.50;5004832;28;20033;-75
2022/10/08 04:21:17;;;;;;;13.27;2.55;;;;;;;-146.61;100.00;58846.50;4998777;28;20061;-79
2022/10/08 04:23:45;;;;;;;3.00;1.58;;;;;;;-146.61;100.00;58846.50;5002069;28;20046;-77
2022/10/08 04:26:13;;;;;;;9.18;1.77;;;;;;;-146.61;100.00;58846.50;5002219;28;20540;-76
2022/10/08 04:28:42;;;;;;;5.68;2.40;;;;;;;-146.61;100.00;58846.50;5001251;28;20049;-76
2022/10/08 04:31:22;;;;;;;6.55;1.88;;;;;;;-146.61;100.00;58846.50;5005559;28;20038;-76
2022/10/08 04:33:49;;;;;;;6.78;1.73;;;;;;;-146.61;100.00;58846.50;5007447;28;20038;-75
2022/10/08 04:36:18;;;;;;;10.48;2.25;;;;;;;-146.61;100.00;58846.50;5007406;28;20054;-74
2022/10/08 04:38:45;;;;;;;5.95;2.40;;;;;;;-146.61;100.00;58846.50;5004500;28;20052;-77
2022/10/08 04:41:17;;;;;;;8.77;2.92;;;;;;;-146.61;100.00;58846.50;5007364;28;20036;-76
2022/10/08 04:43:45;;;;;;;6.32;2.90;;;;;;;-146.61;100.00;58846.50;5008728;28;20139;-78
2022/10/08 04:46:14;;;;;;;10.23;3.05;;;;;;;-146.61;100.00;58846.50;5008219;28;20133;-75
2022/10/08 04:48:49;;;;;;;12.65;2.83;;;;;;;-146.61;100.00;58846.50;5004697;28;20044;-77
2022/10/08 04:51:17;;;;;;;15.70;3.85;;;;;;;-146.61;100.00;58846.50;5011513;28;20485;-74
2022/10/08 04:53:43;;;;;;;8.32;3.20;;;;;;;-146.61;100.00;58846.50;5008468;28;20074;-75
2022/10/08 04:56:20;;;;;;;9.52;2.95;;;;;;;-146.61;100.00;58846.50;5005975;28;20041;-76
2022/10/08 04:58:47;;;;;;;11.95;4.40;;;;;;;-146.61;100.00;58846.50;5005310;28;20053;-75
2022/10/08 05:01:16;;;;;;;5.80;3.00;;;;;;;-146.61;100.00;58846.50;5006572;28;20041;-75
2022/10/08 05:03:45;;;;;;;14.52;3.38;;;;;;;-146.61;100.00;58846.50;5006627;28;20469;-76
2022/10/08 05:06:15;;;;;;;10.35;3.03;;;;;;;-146.61;100.00;58846.50;5010080;28;20384;-76
2022/10/08 05:08:42;;;;;;;7.30;2.80;;;;;;;-146.61;100.00;58846.50;5004742;28;20054;-77
2022/10/08 05:11:08;;;;;;;7.93;3.65;;;;;;;-146.61;100.00;58846.50;5008679;28;20038;-77
2022/10/08 05:13:35;;;;;;;9.23;3.30;;;;;;;-146.61;100.00;58846.50;5008405;28;20734;-77
2022/10/08 05:16:06;;;;;;;6.63;3.25;;;;;;;-146.61;100.00;58846.50;5007174;28;20052;-75
2022/10/08 05:18:34;;;;;;;11.18;3.35;;;;;;;-146.61;100.00;58846.50;5005556;28;20565;-78
2022/10/08 05:21:09;;;;;;;17.17;4.85;;;;;;;-146.61;100.00;58846.50;5006353;28;20057;-77
2022/10/08 05:23:36;;;;;;;15.88;4.00;;;;;;;-146.61;100.00;58846.50;5003199;28;20045;-77
2022/10/08 05:26:15;;;;;;;16.50;4.50;;;;;;;-146.61;100.00;58846.50;5007030;28;20121;-76
2022/10/08 05:28:42;;;;;;;22.40;4.43;;;;;;;-146.61;100.00;58846.50;5006975;28;20048;-77
2022/10/08 05:31:09;;;;;;;11.90;4.30;;;;;;;-146.61;100.00;58846.50;5004979;28;20048;-76
2022/10/08 05:33:36;;;;;;;10.02;4.75;;;;;;;-146.61;100.00;58846.50;5003742;28;20104;-77
2022/10/08 05:36:08;;;;;;;11.00;4.55;;;;;;;-146.61;100.00;58846.50;5007026;28;20045;-79
2022/10/08 05:38:35;;;;;;;7.05;4.60;;;;;;;-146.61;100.00;58846.50;5009129;28;20125;-79
2022/10/08 05:41:14;;;;;;;12.13;5.20;;;;;;;-146.61;100.00;58846.50;5010188;28;20049;-74
2022/10/08 05:43:41;;;;;;;10.73;5.10;;;;;;;-146.61;100.00;58846.50;5008796;28;20046;-77
2022/10/08 05:46:07;;;;;;;11.90;4.75;;;;;;;-146.61;100.00;58846.50;5010043;28;20041;-76
2022/10/08 05:48:34;;;;;;;10.75;4.43;;;;;;;-146.61;100.00;58846.50;5007657;28;20042;-81
2022/10/08 05:51:07;;;;;;;9.27;4.43;;;;;;;-146.61;100.00;58846.50;5011734;28;20050;-76
2022/10/08 05:53:34;;;;;;;;;;;;;;;-146.61;100.00;58846.50;5014939;28;20057;-76
2022/10/08 05:56:03;;;;;;;13.57;5.38;;;;;;;-146.61;100.00;58846.50;5014841;28;19933;-76
2022/10/08 05:58:30;;;;;;;10.15;5.45;;;;;;;-146.61;100.00;58846.50;5016697;28;20453;-77
2022/10/08 06:01:01;;;;;;;13.60;5.63;;;;;;;-146.61;100.00;58846.50;5008816;28;20188;-76
2022/10/08 06:03:28;;;;;;;15.18;6.40;;;;;;;-146.61;100.00;58846.50;5011360;28;20050;-76
2022/10/08 06:05:55;;;;;;;21.70;6.38;;;;;;;-146.61;100.00;58846.50;5016069;28;20470;-75
2022/10/08 06:08:22;;;;;;;13.18;6.53;;;;;;;-146.61;100.00;58846.50;5013176;28;20045;-75
2022/10/08 06:10:52;;;;;;;11.65;7.18;;;;;;;-146.61;100.00;58846.50;5010804;28;20045;-76
2022/10/08 06:13:20;;;;;;;15.90;7.72;;;;;;;-146.61;100.00;58846.50;5012621;28;20054;-77
2022/10/08 06:16:04;;;;;;;11.93;6.63;;;;;;;-146.61;100.00;58846.50;5008934;28;20703;-75
2022/10/08 06:18:33;;;;;;;11.57;5.90;;;;;;;-146.61;100.00;58846.50;5005922;28;20505;-77
2022/10/08 06:21:05;;;;;;;14.32;6.82;;;;;;;-146.61;100.00;58846.50;5010002;28;20401;-78
2022/10/08 06:23:31;;;;;;;15.30;7.07;;;;;;;-146.61;100.00;58846.50;5009154;28;20493;-77
2022/10/08 06:26:04;;;;;;;21.08;7.43;;;;;;;-146.61;100.00;58846.50;5012454;28;20044;-76
2022/10/08 06:28:32;;;;;;;15.98;7.13;;;;;;;-146.61;100.00;58846.50;5010956;28;20366;-75
2022/10/08 06:30:59;;;;;;;13.25;6.32;;;;;;;-146.61;100.00;58846.50;5012018;28;20042;-77
2022/10/08 06:33:26;;;;;;;16.17;7.07;;;;;;;-146.61;100.00;58846.50;5012573;28;20489;-77
2022/10/08 06:35:52;;;;;;;15.95;7.00;;;;;;;-146.61;100.00;58846.50;5011024;28;20480;-77
2022/10/08 06:38:19;;;;;;;12.02;7.95;;;;;;;-146.61;100.00;58846.50;5013667;28;20046;-76
2022/10/08 06:40:45;;;;;;;12.63;7.90;;;;;;;-146.61;100.00;58846.50;5012656;28;20461;-77
2022/10/08 06:43:13;;;;;;;17.67;8.27;;;;;;;-146.61;100.00;58846.50;5011018;28;20112;-78
2022/10/08 06:45:40;;;;;;;10.77;7.30;;;;;;;-146.61;100.00;58846.50;5011673;28;20077;-76
2022/10/08 06:48:07;;;;;;;12.00;7.25;;;;;;;-146.61;100.00;58846.50;5010988;28;20053;-76
2022/10/08 06:50:34;;;;;;;17.60;8.98;;;;;;;-146.61;100.00;58846.50;5009081;28;20049;-76
2022/10/08 06:53:00;;;;;;;17.95;8.27;;;;;;;-146.61;100.00;58846.50;5004518;28;20049;-77
2022/10/08 06:55:27;;;;;;;14.70;9.27;;;;;;;-146.61;100.00;58846.50;5008681;28;20559;-78
2022/10/08 06:57:53;;;;;;;16.73;8.10;;;;;;;-146.61;100.00;58846.50;5007534;28;20052;-75
2022/10/08 07:00:20;;;;;;;14.88;8.18;;;;;;;-146.61;100.00;58846.50;5010146;28;20057;-75
2022/10/08 07:02:46;;;;;;;13.65;7.47;;;;;;;-146.61;100.00;58846.50;5003627;28;20058;-78
2022/10/08 07:05:13;;;;;;;15.20;7.82;;;;;;;-146.61;100.00;58846.50;5006882;28;20045;-79
2022/10/08 07:07:39;;;;;;;18.17;7.45;;;;;;;-146.61;100.00;58846.50;5005400;28;20868;-76
2022/10/08 07:10:06;;;;;;;11.68;6.53;;;;;;;-146.61;100.00;58846.50;5016570;28;20133;-76
2022/10/08 07:12:32;;;;;;;20.25;7.40;;;;;;;-146.61;100.00;58846.50;5006141;28;20041;-76
2022/10/08 07:14:59;;;;;;;14.30;7.25;;;;;;;-146.61;100.00;58846.50;5006613;28;20061;-76
2022/10/08 07:17:27;;;;;;;12.32;7.72;;;;;;;-146.61;100.00;58846.50;5004983;28;20060;-77
2022/10/08 07:19:54;;;;;;;14.90;6.28;;;;;;;-146.61;100.00;58846.50;5007703;28;20045;-79
2022/10/08 07:22:21;;;;;;;11.75;6.47;;;;;;;-146.61;100.00;58846.50;5001752;28;20157;-79
2022/10/08 07:24:48;;;;;;;9.68;6.53;;;;;;;-146.61;100.00;58846.50;5004265;28;20096;-76
2022/10/08 07:27:15;;;;;;;11.25;5.70;;;;;;;-146.61;100.00;58846.50;5007158;28;20050;-76
2022/10/08 07:29:41;;;;;;;14.05;5.47;;;;;;;-146.61;100.00;58846.50;5002772;28;20042;-77
2022/10/08 07:32:07;;;;;;;8.35;4.57;;;;;;;-146.61;100.00;58846.50;5004362;28;20045;-75
2022/10/08 07:34:34;;;;;;;7.68;4.28;;;;;;;-146.61;100.00;58846.50;5007132;28;20507;-75
2022/10/08 07:37:00;;;;;;;15.32;5.95;;;;;;;-146.61;100.00;58846.50;5006869;28;20722;-79
2022/10/08 07:39:27;;;;;;;9.75;3.97;;;;;;;-146.61;100.00;58846.50;5006182;28;20069;-78
2022/10/08 07:41:54;;;;;;;8.15;3.65;;;;;;;-146.61;100.00;58846.50;5009438;28;20042;-77
2022/10/08 07:44:20;;;;;;;6.88;4.15;;;;;;;-146.61;100.00;58846.50;5008439;28;20065;-79
2022/10/08 07:46:49;;;;;;;5.38;3.58;;;;;;;-146.61;100.00;58846.50;5006393;28;20493;-76
2022/10/08 07:49:18;;;;;;;10.18;3.88;;;;;;;-146.61;100.00;58846.50;5005230;28;20050;-77
2022/10/08 07:51:45;;;;;;;8.23;4.07;;;;;;;-146.61;100.00;58846.50;5006453;28;20152;-75
2022/10/08 07:54:15;;;;;;;7.95;4.28;;;;;;;-146.61;100.00;58846.50;5007593;28;20042;-76
2022/10/08 07:56:42;;;;;;;10.70;3.70;;;;;;;-146.61;100.00;58846.50;5004801;28;20492;-77
2022/10/08 07:59:08;;;;;;;8.75;4.07;;;;;;;-146.61;100.00;58846.50;5003987;28;20417;-76
2022/10/08 08:01:35;;;;;;;11.15;3.90;;;;;;;-146.61;100.00;58846.50;5006646;28;20121;-75
2022/10/08 08:04:05;;;;;;;8.93;4.18;;;;;;;-146.61;100.00;58846.50;5004188;28;20145;-77
2022/10/08 08:06:33;;;;;;;9.70;4.85;;;;;;;-146.61;100.00;58846.50;5004353;28;20412;-79
2022/10/08 08:09:00;;;;;;;6.28;4.28;;;;;;;-146.61;100.00;58846.50;5004034;28;20571;-76
2022/10/08 08:11:27;;;;;;;10.35;3.22;;;;;;;-146.61;100.00;58846.50;5006597;28;20116;-75
2022/10/08 08:13:53;;;;;;;10.85;3.90;;;;;;;-146.61;100.00;58846.50;5004601;28;20042;-77
2022/10/08 08:16:24;;;;;;;7.25;4.07;;;;;;;-146.61;100.00;58846.50;5001729;28;20066;-76
2022/10/08 08:18:54;;;;;;;5.20;3.58;;;;;;;-146.61;100.00;58846.50;5004305;28;20042;-76
2022/10/08 08:21:23;;;;;;;10.10;3.50;;;;;;;-146.61;100.00;58846.50;5006392;28;20068;-77
2022/10/08 08:23:52;;;;;;;8.18;4.45;;;;;;;-146.61;100.00;58846.50;5007114;28;20040;-78
2022/10/08 08:26:23;;;;;;;8.82;4.13;;;;;;;-146.61;100.00;58846.50;5005806;28;20053;-76
2022/10/08 08:28:54;;;;;;;9.05;3.03;;;;;;;-146.61;100.00;58846.50;5007301;28;20054;-77
2022/10/08 08:31:35;;;;;;;6.97;3.70;;;;;;;-146.61;100.00;58846.50;5005012;28;20046;-77
2022/10/08 08:34:05;;;;;;;8.85;4.63;;;;;;;-146.61;100.00;58846.50;5006519;28;20056;-78
2022/10/08 08:36:38;;;;;;;13.65;3.72;;;;;;;-146.61;100.00;58846.50;5003213;28;20045;-78
2022/10/08 08:39:06;;;;;;;5.70;3.45;;;;;;;-146.61;100.00;58846.50;5000366;28;20045;-79
2022/10/08 08:41:38;;;;;;;7.03;3.20;;;;;;;-146.61;100.00;58846.50;5006014;28;20115;-79
2022/10/08 08:44:10;;;;;;;7.40;3.90;;;;;;;-146.61;100.00;58846.50;5004659;28;20046;-78
2022/10/08 08:46:42;;;;;;;9.15;3.78;;;;;;;-146.61;100.00;58846.50;5005126;28;20123;-80
2022/10/08 08:49:19;;;;;;;8.23;3.63;;;;;;;-146.61;100.00;58846.50;5014625;28;20057;-75
2022/10/08 08:51:45;;;;;;;7.85;3.60;;;;;;;-146.61;100.00;58846.50;5015727;28;20088;-79
2022/10/08 08:54:12;;;;;;;8.25;3.58;;;;;;;-146.61;100.00;58846.50;5003023;28;20045;-79
2022/10/08 08:56:38;;;;;;;4.07;3.50;;;;;;;-146.61;100.00;58846.50;5002500;28;20553;-75
2022/10/08 08:59:31;;;;;;;9.75;3.80;;;;;;;-146.61;100.00;58846.50;5002302;28;20049;-78
2022/10/08 09:02:05;;;;;;;7.30;4.13;;;;;;;-146.61;100.00;58846.50;5003318;28;20073;-78
2022/10/08 09:04:50;;;;;;;10.05;3.72;;;;;;;-146.61;100.00;58846.50;5004983;28;20041;-78
2022/10/08 09:07:21;;;;;;;4.95;2.85;;;;;;;-146.61;100.00;58846.50;5004158;28;20077;-76
2022/10/08 09:09:51;;;;;;;7.10;3.85;;;;;;;-146.61;100.00;58846.50;5005433;28;20061;-79
2022/10/08 09:12:33;;;;;;;8.93;2.85;;;;;;;-146.61;100.00;58846.50;5000601;28;20065;-78
2022/10/08 09:15:01;;;;;;;2.78;2.40;;;;;;;-146.61;100.00;58846.50;5005013;28;20070;-76
2022/10/08 09:17:33;;;;;;;6.05;3.05;;;;;;;-146.61;100.00;58846.50;5005601;28;20046;-77
2022/10/08 09:20:00;;;;;;;7.45;2.58;;;;;;;-146.61;100.00;58846.50;5003396;28;20038;-77
2022/10/08 09:22:30;;;;;;;5.47;3.25;;;;;;;-146.61;100.00;58846.50;5005909;28;20100;-78
2022/10/08 09:25:03;;;;;;;5.25;2.55;;;;;;;-146.61;100.00;58846.50;5004187;28;20046;-77
2022/10/08 09:27:47;;;;;;;8.27;3.30;;;;;;;-146.61;100.00;58846.50;5004001;28;20039;-77
2022/10/08 09:30:38;;;;;;;7.43;2.40;;;;;;;-146.61;100.00;58846.50;5009206;28;20489;-74
2022/10/08 09:33:20;;;;;;;5.78;2.83;;;;;;;-146.61;100.00;58846.50;5007701;28;20060;-79
2022/10/08 09:35:50;;;;;;;5.38;2.60;;;;;;;-146.61;100.00;58846.50;5020423;28;20114;-76
2022/10/08 09:38:25;;;;;;;7.60;2.90;;;;;;;-146.61;100.00;58846.50;5010961;28;20100;-76
2022/10/08 09:41:19;;;;;;;8.95;2.50;;;;;;;-146.61;100.00;58846.50;5007317;28;20473;-76
2022/10/08 09:44:04;;;;;;;6.82;3.00;;;;;;;-146.61;100.00;58846.50;5002648;28;20058;-77
2022/10/08 09:46:33;;;;;;;10.27;2.75;;;;;;;-146.61;100.00;58846.50;5027291;28;20448;-77
2022/10/08 09:49:35;;;;;;;7.07;2.95;;;;;;;-146.61;100.00;58846.50;5002045;28;20058;-77
2022/10/08 09:52:24;;;;;;;6.40;2.30;;;;;;;-146.61;100.00;58846.50;5003477;28;20101;-76
2022/10/08 09:55:03;;;;;;;6.80;2.28;;;;;;;-146.61;100.00;58846.50;5005607;28;20084;-79
2022/10/08 09:57:31;;;;;;;4.82;2.78;;;;;;;-146.61;100.00;58846.50;5004747;28;20137;-76
2022/10/08 10:00:00;;;;;;;5.53;2.10;;;;;;;-146.61;100.00;58846.50;5005597;28;20054;-76
2022/10/08 10:02:33;;;;;;;7.10;2.47;;;;;;;-146.61;100.00;58846.50;5003260;28;20041;-77
2022/10/08 10:05:02;;;;;;;7.43;2.13;;;;;;;-146.61;100.00;58846.50;5005982;28;20042;-80
2022/10/08 10:07:44;;;;;;;5.10;2.03;;;;;;;-146.61;100.00;58846.50;5008385;28;20050;-78
2022/10/08 10:10:43;;;;;;;6.82;1.55;;;;;;;-146.61;100.00;58846.50;5003871;28;20042;-78
2022/10/08 10:13:21;;;;;;;6.63;1.98;;;;;;;-146.61;100.00;58846.50;5002723;28;20056;-75
2022/10/08 10:16:11;;;;;;;7.18;2.15;;;;;;;-146.61;100.00;58846.50;5003587;28;20052;-76
2022/10/08 10:18:43;;;;;;;2.40;1.55;;;;;;;-146.61;100.00;58846.50;5003791;28;20045;-80
2022/10/08 10:21:15;;;;;;;8.15;2.08;;;;;;;-146.61;100.00;58846.50;5003926;28;20133;-76
2022/10/08 10:23:53;;;;;;;4.35;1.75;;;;;;;-146.61;100.00;58846.50;5003222;28;20125;-79
2022/10/08 10:26:25;;;;;;;3.92;1.80;;;;;;;-146.61;100.00;58846.50;5002771;28;20049;-78
2022/10/08 10:28:57;;;;;;;9.50;2.08;;;;;;;-146.61;100.00;58846.50;5003961;28;20042;-77
2022/10/08 10:31:32;;;;;;;5.30;2.13;;;;;;;-146.61;100.00;58846.50;5002023;28;20049;-77
2022/10/08 10:34:09;;;;;;;8.10;1.95;;;;;;;-146.61;100.00;58846.50;5000657;28;20053;-77
2022/10/08 10:36:42;;;;;;;4.50;1.75;;;;;;;-146.61;100.00;58846.50;5008544;28;20038;-78
2022/10/08 10:39:14;;;;;;;7.28;1.67;;;;;;;-146.61;100.00;58846.50;5023185;28;20449;-78
2022/10/08 10:41:48;;;;;;;8.23;1.90;;;;;;;-146.61;100.00;58846.50;5009933;28;20038;-78
2022/10/08 10:44:23;;;;;;;3.83;1.45;;;;;;;-146.61;100.00;58846.50;5005033;28;20505;-77
2022/10/08 10:46:54;;;;;;;8.00;1.95;;;;;;;-146.61;100.00;58846.50;5008068;28;20099;-80
2022/10/08 10:49:32;;;;;;;5.75;2.42;;;;;;;-146.61;100.00;58846.50;5004649;28;20048;-77
2022/10/08 10:52:44;;;;;;;6.63;1.80;;;;;;;-146.61;100.00;58846.50;5012414;28;20046;-83
2022/10/08 10:55:30;;;;;;;6.80;1.75;;;;;;;-146.61;100.00;58846.50;5009439;28;20041;-78
2022/10/08 10:58:17;;;;;;;5.25;1.52;;;;;;;-146.61;100.00;58846.50;5011931;28;20125;-77
2022/10/08 11:00:56;;;;;;;6.65;1.52;;;;;;;-146.61;100.00;58846.50;5016626;28;20116;-76
2022/10/08 11:03:57;;;;;;;5.90;1.77;;;;;;;-146.61;100.00;58846.50;5012613;28;20042;-81
2022/10/08 11:06:33;;;;;;;7.28;1.65;;;;;;;-146.61;100.00;58846.50;5017540;28;20050;-75
2022/10/08 11:09:05;;;;;;;5.53;1.35;;;;;;;-146.61;100.00;58846.50;5017467;28;20046;-81
2022/10/08 11:11:53;;;;;;;4.40;1.60;;;;;;;-146.61;100.00;58846.50;5012998;28;20056;-77
2022/10/08 11:14:50;;;;;;;4.97;1.48;;;;;;;-146.61;100.00;58846.50;5013266;28;20102;-76
2022/10/08 11:17:41;;;;;;;11.40;2.15;;;;;;;-146.61;100.00;58846.50;5014164;28;20105;-77
2022/10/08 11:20:30;;;;;;;5.03;1.67;;;;;;;-146.61;100.00;58846.50;5005677;28;20100;-75
2022/10/08 11:23:28;;;;;;;3.35;1.65;;;;;;;-146.61;100.00;58846.50;5010169;28;20394;-77
2022/10/08 11:26:00;;;;;;;4.40;1.88;;;;;;;-146.61;100.00;58846.50;5008371;28;20054;-79
2022/10/08 11:28:39;;;;;;;7.38;1.55;;;;;;;-146.61;100.00;58846.50;5012730;28;20100;-77